createdAt,value
2018-07-12T00:00:10.256Z,92.10
2018-07-12T00:02:38.438Z,91.90
2018-07-12T00:11:18.504Z,92.10
2018-07-12T00:13:47.352Z,92.20
2018-07-12T00:16:16.560Z,92.50
2018-07-12T00:18:46.170Z,92.50
2018-07-12T00:21:15.534Z,92.60
2018-07-12T00:23:44.501Z,92.60
2018-07-12T00:26:13.427Z,92.60
2018-07-12T00:28:42.338Z,92.70
2018-07-12T00:31:26.687Z,92.80
2018-07-12T00:33:55.800Z,93.00
2018-07-12T00:36:25.456Z,92.80
2018-07-12T00:38:55.349Z,92.90
2018-07-12T00:41:23.675Z,92.90
2018-07-12T00:43:54.288Z,93.10
2018-07-12T00:46:23.143Z,93.40
2018-07-12T00:53:37.607Z,93.40
2018-07-12T00:56:06.940Z,92.80
2018-07-12T01:05:29.571Z,93.20
2018-07-12T01:07:57.835Z,93.10
2018-07-12T01:10:27.044Z,93.20
2018-07-12T01:17:11.781Z,93.20
2018-07-12T01:19:40.767Z,92.90
2018-07-12T01:25:09.638Z,93.70
2018-07-12T01:27:38.152Z,93.50
2018-07-12T01:30:08.091Z,93.20
2018-07-12T01:32:37.090Z,93.30
2018-07-12T01:35:06.074Z,92.90
2018-07-12T01:40:40.918Z,92.80
2018-07-12T01:43:09.963Z,93.20
2018-07-12T01:45:40.156Z,93.20
2018-07-12T01:48:10.870Z,93.40
2018-07-12T01:50:40.386Z,93.50
2018-07-12T01:53:10.091Z,93.40
2018-07-12T01:55:40.178Z,93.50
2018-07-12T02:07:18.802Z,93.30
2018-07-12T02:09:46.861Z,93.10
2018-07-12T02:12:15.505Z,93.10
2018-07-12T02:14:43.229Z,93.00
2018-07-12T02:17:11.170Z,92.90
2018-07-12T02:22:45.123Z,93.60
2018-07-12T02:25:14.810Z,93.60
2018-07-12T02:27:43.530Z,93.80
2018-07-12T02:30:12.433Z,93.80
2018-07-12T02:32:41.267Z,93.30
2018-07-12T02:35:11.710Z,93.40
2018-07-12T02:40:53.308Z,94.00
2018-07-12T02:43:22.058Z,93.70
2018-07-12T02:45:50.819Z,93.80
2018-07-12T02:51:26.893Z,93.60
2018-07-12T02:53:56.025Z,93.50
2018-07-12T02:56:24.524Z,93.40
2018-07-12T02:59:23.470Z,93.40
2018-07-12T03:04:51.082Z,92.90
2018-07-12T03:07:19.438Z,92.80
2018-07-12T03:09:48.242Z,92.70
2018-07-12T03:12:17.389Z,92.90
2018-07-12T03:14:45.985Z,93.00
2018-07-12T03:17:15.863Z,93.00
2018-07-12T03:26:34.168Z,93.00
2018-07-12T03:29:03.289Z,92.80
2018-07-12T03:45:33.518Z,93.80
2018-07-12T03:48:01.476Z,93.00
2018-07-12T03:54:05.488Z,92.30
2018-07-12T03:56:34.747Z,92.20
2018-07-12T03:59:03.495Z,92.10
2018-07-12T04:01:32.705Z,92.10
2018-07-12T04:04:01.480Z,92.10
2018-07-12T04:06:30.258Z,91.90
2018-07-12T04:08:58.611Z,91.60
2018-07-12T04:11:27.897Z,91.60
2018-07-12T04:14:03.804Z,91.60
2018-07-12T04:16:32.212Z,91.50
2018-07-12T04:19:01.285Z,91.10
2018-07-12T04:21:30.017Z,91.10
2018-07-12T04:23:59.400Z,91.00
2018-07-12T04:26:28.255Z,90.90
2018-07-12T04:28:56.757Z,90.80
2018-07-12T04:31:25.690Z,90.60
2018-07-12T04:33:55.376Z,90.30
2018-07-12T04:36:44.910Z,90.20
2018-07-12T04:39:13.223Z,89.70
2018-07-12T04:41:42.112Z,89.20
2018-07-12T04:44:11.341Z,89.20
2018-07-12T04:46:40.124Z,87.70
2018-07-12T04:55:42.512Z,86.60
2018-07-12T05:01:47.021Z,85.20
2018-07-12T05:13:55.667Z,82.50
2018-07-12T05:19:33.619Z,81.90
2018-07-12T05:22:02.482Z,81.10
2018-07-12T05:24:31.645Z,80.40
2018-07-12T05:27:00.516Z,80.40
2018-07-12T05:32:35.286Z,80.00
2018-07-12T05:35:03.975Z,80.40
2018-07-12T05:37:36.178Z,79.90
2018-07-12T05:40:07.101Z,79.90
2018-07-12T05:42:37.135Z,80.10
2018-07-12T05:45:06.977Z,80.60
2018-07-12T05:47:36.981Z,80.60
2018-07-12T05:50:09.467Z,80.70
2018-07-12T05:52:40.748Z,80.80
2018-07-12T05:55:11.532Z,81.00
2018-07-12T05:57:43.799Z,80.90
2018-07-12T06:00:14.831Z,81.00
2018-07-12T06:08:34.601Z,80.40
2018-07-12T06:12:35.390Z,80.20
2018-07-12T06:15:09.336Z,80.20
2018-07-12T06:17:42.084Z,80.00
2018-07-12T06:20:13.611Z,80.00
2018-07-12T06:22:44.520Z,80.10
2018-07-12T06:25:15.464Z,80.10
2018-07-12T06:27:52.940Z,79.90
2018-07-12T06:44:20.038Z,79.90
2018-07-12T06:46:51.091Z,78.90
2018-07-12T06:53:03.797Z,78.80
2018-07-12T06:57:50.650Z,78.00
2018-07-12T07:00:21.847Z,78.10
2018-07-12T07:06:17.692Z,77.50
2018-07-12T07:08:49.068Z,76.70
2018-07-12T07:11:25.400Z,75.30
2018-07-12T07:13:57.051Z,74.60
2018-07-12T07:16:29.389Z,73.90
2018-07-12T07:19:01.128Z,73.70
2018-07-12T07:21:34.447Z,73.00
2018-07-12T07:24:11.851Z,73.50
2018-07-12T07:26:43.516Z,73.10
2018-07-12T07:29:15.763Z,71.10
2018-07-12T07:31:49.074Z,71.80
2018-07-12T07:34:19.555Z,70.90
2018-07-12T07:36:51.420Z,71.30
2018-07-12T07:39:22.986Z,71.30
2018-07-12T07:42:34.997Z,71.00
2018-07-12T07:45:41.105Z,71.10
2018-07-12T07:48:13.900Z,69.90
2018-07-12T07:59:06.443Z,71.60
2018-07-12T08:01:37.087Z,72.80
2018-07-12T08:04:07.762Z,72.90
2018-07-12T08:06:39.801Z,71.60
2018-07-12T08:09:12.566Z,71.70
2018-07-12T08:14:58.535Z,70.10
2018-07-12T08:17:29.370Z,70.30
2018-07-12T08:19:59.675Z,69.80
2018-07-12T08:22:35.537Z,69.10
2018-07-12T08:25:07.791Z,68.80
2018-07-12T08:27:44.006Z,70.60
2018-07-12T08:30:16.343Z,68.40
2018-07-12T08:32:48.187Z,66.40
2018-07-12T08:38:19.963Z,66.90
2018-07-12T08:40:50.717Z,65.60
2018-07-12T08:46:38.253Z,64.40
2018-07-12T08:49:09.892Z,64.10
2018-07-12T08:51:42.769Z,63.90
2018-07-12T08:54:16.918Z,64.00
2018-07-12T08:59:48.275Z,61.00
2018-07-12T09:02:19.720Z,60.90
2018-07-12T09:04:51.041Z,61.00
2018-07-12T09:07:23.616Z,62.80
2018-07-12T09:09:53.596Z,62.30
2018-07-12T09:12:23.754Z,62.40
2018-07-12T09:14:55.669Z,62.20
2018-07-12T09:17:26.673Z,61.20
2018-07-12T09:20:03.892Z,61.10
2018-07-12T09:22:37.623Z,63.00
2018-07-12T09:25:08.927Z,62.80
2018-07-12T09:27:41.520Z,63.10
2018-07-12T09:30:13.651Z,63.70
2018-07-12T09:32:43.894Z,63.80
2018-07-12T09:35:15.236Z,65.00
2018-07-12T09:37:47.656Z,64.50
2018-07-12T09:40:35.217Z,64.60
2018-07-12T09:43:06.528Z,65.20
2018-07-12T09:45:38.237Z,65.50
2018-07-12T09:48:10.509Z,66.00
2018-07-12T09:50:43.147Z,66.30
2018-07-12T09:53:15.295Z,66.40
2018-07-12T09:55:46.534Z,66.20
2018-07-12T09:58:27.310Z,66.20
2018-07-12T10:01:15.183Z,66.20
2018-07-12T10:03:50.131Z,64.60
2018-07-12T10:06:27.508Z,64.00
2018-07-12T10:09:00.296Z,63.60
2018-07-12T10:11:35.901Z,63.00
2018-07-12T10:14:13.142Z,62.80
2018-07-12T10:22:57.438Z,63.20
2018-07-12T10:25:28.381Z,63.50
2018-07-12T10:28:00.559Z,63.00
2018-07-12T10:30:31.758Z,62.80
2018-07-12T10:33:04.122Z,64.00
2018-07-12T10:35:38.807Z,63.20
2018-07-12T10:38:13.787Z,62.80
2018-07-12T10:40:47.636Z,63.30
2018-07-12T10:43:20.290Z,62.70
2018-07-12T10:46:02.982Z,61.40
2018-07-12T10:48:39.462Z,61.50
2018-07-12T10:51:17.177Z,60.70
2018-07-12T10:53:49.052Z,60.40
2018-07-12T10:56:23.022Z,59.50
2018-07-12T10:58:56.161Z,60.00
2018-07-12T11:49:38.986Z,56.20
2018-07-12T11:52:09.150Z,55.70
2018-07-12T11:54:38.228Z,57.00
2018-07-12T11:57:08.584Z,57.40
2018-07-12T11:59:40.143Z,56.40
2018-07-12T12:02:12.128Z,56.40
2018-07-12T12:12:48.606Z,54.90
2018-07-12T12:25:13.481Z,50.70
2018-07-12T12:27:47.340Z,50.30
2018-07-12T12:30:21.593Z,50.30
2018-07-12T12:45:10.900Z,48.20
2018-07-12T13:33:34.092Z,48.10
2018-07-12T13:36:24.187Z,46.70
2018-07-12T13:45:51.231Z,47.70
2018-07-12T13:48:27.594Z,47.50
2018-07-12T13:53:54.608Z,47.20
2018-07-12T14:00:06.299Z,47.60
2018-07-12T14:02:39.516Z,47.00
2018-07-12T14:23:41.907Z,47.20
2018-07-12T14:26:17.263Z,47.70
2018-07-12T14:29:02.848Z,47.00
2018-07-12T14:31:38.322Z,47.20
2018-07-12T14:37:41.783Z,47.60
2018-07-12T14:43:08.197Z,47.70
2018-07-12T14:45:43.739Z,46.80
2018-07-12T14:48:29.925Z,48.10
2018-07-12T14:51:03.179Z,48.00
2018-07-12T14:53:34.951Z,47.10
2018-07-12T14:56:09.368Z,47.00
2018-07-12T14:58:42.228Z,48.10
2018-07-12T15:01:12.857Z,47.50
2018-07-12T15:03:44.504Z,47.20
2018-07-12T15:06:15.684Z,46.60
2018-07-12T15:11:54.391Z,46.60
2018-07-12T15:17:27.943Z,47.00
2018-07-12T15:19:58.567Z,47.10
2018-07-12T15:22:29.819Z,47.20
2018-07-12T15:24:59.396Z,47.10
2018-07-12T15:27:29.548Z,47.40
2018-07-12T15:29:59.499Z,48.00
2018-07-12T15:32:30.440Z,47.70
2018-07-12T15:35:01.536Z,47.50
2018-07-12T15:37:31.620Z,47.40
2018-07-12T15:40:03.733Z,47.30
2018-07-12T15:45:58.126Z,47.50
2018-07-12T15:48:29.093Z,46.40
2018-07-12T15:51:00.141Z,46.50
2018-07-12T15:53:31.964Z,46.70
2018-07-12T15:56:04.857Z,46.60
2018-07-12T15:58:37.920Z,46.70
2018-07-12T16:01:10.386Z,46.30
2018-07-12T16:03:49.148Z,47.00
2018-07-12T16:06:20.630Z,46.60
2018-07-12T16:08:52.725Z,47.20
2018-07-12T16:17:26.794Z,43.60
2018-07-12T16:20:01.516Z,37.90
2018-07-12T18:20:53.715Z,35.50
2018-07-12T18:23:25.017Z,39.10
2018-07-12T18:25:54.283Z,41.70
2018-07-12T18:28:25.905Z,44.00
2018-07-12T18:30:56.146Z,45.90
2018-07-12T18:33:27.007Z,47.40
2018-07-12T18:35:59.019Z,48.60
2018-07-12T18:38:29.112Z,49.80
2018-07-12T18:41:00.089Z,51.00
2018-07-12T18:43:31.273Z,52.10
2018-07-12T18:46:02.175Z,52.70
2018-07-12T18:48:33.605Z,54.00
2018-07-12T18:51:04.797Z,54.10
2018-07-12T18:53:36.824Z,54.80
2018-07-12T18:56:07.772Z,55.50
2018-07-12T18:58:38.748Z,56.00
2018-07-12T19:01:10.262Z,56.60
2018-07-12T19:03:41.824Z,57.00
2018-07-12T19:06:12.258Z,57.80
2018-07-12T19:08:43.739Z,58.20
2018-07-12T19:11:14.956Z,58.90
2018-07-12T19:13:47.585Z,59.10
2018-07-12T19:16:19.972Z,59.40
2018-07-12T19:21:54.990Z,60.30
2018-07-12T19:24:26.822Z,60.90
2018-07-12T19:26:58.091Z,61.40
2018-07-12T19:29:30.032Z,61.50
2018-07-12T19:32:02.987Z,61.90
2018-07-12T19:34:35.539Z,62.80
2018-07-12T19:37:08.471Z,63.00
2018-07-12T19:39:41.754Z,63.70
2018-07-12T19:45:33.079Z,64.60
2018-07-12T19:51:31.384Z,65.40
2018-07-12T19:54:01.463Z,66.10
2018-07-12T19:56:31.967Z,66.50
2018-07-12T20:07:03.487Z,67.20
2018-07-12T20:12:48.344Z,68.30
2018-07-12T20:15:51.916Z,68.70
2018-07-12T20:18:22.594Z,69.20
2018-07-12T20:20:54.224Z,69.80
2018-07-12T20:23:26.323Z,70.40
2018-07-12T20:26:02.696Z,70.50
2018-07-12T20:28:33.378Z,71.10
2018-07-12T20:31:04.054Z,71.50
2018-07-12T20:33:35.932Z,71.80
2018-07-12T20:36:07.327Z,72.30
2018-07-12T20:38:36.631Z,72.80
2018-07-12T20:41:07.286Z,73.30
2018-07-12T20:43:37.456Z,73.90
2018-07-12T20:49:19.541Z,74.90
2018-07-12T20:54:56.685Z,75.80
2018-07-12T21:01:04.051Z,76.80
2018-07-12T21:03:34.515Z,77.30
2018-07-12T21:06:06.463Z,77.80
2018-07-12T21:08:38.516Z,78.90
2018-07-12T21:11:08.523Z,78.90
2018-07-12T21:13:39.991Z,79.20
2018-07-12T21:16:10.703Z,79.50
2018-07-12T21:18:41.373Z,80.30
2018-07-12T21:22:26.372Z,80.70
2018-07-12T21:24:56.313Z,81.20
2018-07-12T21:27:28.031Z,81.60
2018-07-12T21:29:59.499Z,82.20
2018-07-12T21:39:14.253Z,82.90
2018-07-12T21:41:45.553Z,83.50
2018-07-12T21:44:15.576Z,83.70
2018-07-12T21:46:45.352Z,84.10
2018-07-12T21:49:16.762Z,84.20
2018-07-12T21:51:46.593Z,84.60
2018-07-12T21:54:18.546Z,84.60
2018-07-12T21:56:50.469Z,84.70
2018-07-12T21:59:21.503Z,85.20
2018-07-12T22:01:53.240Z,85.40
2018-07-12T22:04:24.076Z,85.50
2018-07-12T22:07:05.129Z,85.60
2018-07-12T22:09:36.130Z,85.80
2018-07-12T22:12:08.366Z,86.10
2018-07-12T22:14:40.168Z,86.30
2018-07-12T22:17:11.676Z,86.50
2018-07-12T22:19:43.030Z,86.60
2018-07-12T22:22:14.054Z,86.50
2018-07-12T22:24:45.315Z,86.90
2018-07-12T22:27:17.039Z,87.30
2018-07-12T22:30:40.742Z,87.40
2018-07-12T22:33:12.676Z,87.90
2018-07-12T22:35:43.708Z,88.20
2018-07-12T22:38:14.129Z,88.60
2018-07-12T22:42:15.010Z,88.90
2018-07-12T22:44:47.094Z,89.00
2018-07-12T22:47:18.582Z,89.40
2018-07-12T22:49:50.262Z,89.50
2018-07-12T22:52:27.817Z,90.20
2018-07-12T22:54:59.629Z,90.10
2018-07-12T22:57:30.638Z,90.00
2018-07-12T23:00:01.828Z,90.10
2018-07-12T23:02:32.252Z,90.20
2018-07-12T23:05:03.184Z,90.30
2018-07-12T23:07:32.492Z,90.40
2018-07-12T23:10:03.552Z,90.40
2018-07-12T23:12:34.434Z,90.30
2018-07-12T23:15:03.982Z,90.30
2018-07-12T23:17:34.122Z,90.40
2018-07-12T23:20:06.146Z,90.70
2018-07-12T23:22:37.842Z,90.60
2018-07-12T23:25:40.797Z,90.80
2018-07-12T23:28:11.687Z,90.70
2018-07-12T23:30:42.346Z,91.00
2018-07-12T23:33:14.451Z,90.80
2018-07-12T23:38:55.399Z,90.80
2018-07-12T23:41:27.190Z,90.80
2018-07-12T23:43:57.320Z,90.70
2018-07-12T23:46:28.545Z,90.80
2018-07-12T23:48:59.182Z,90.60
2018-07-12T23:51:30.634Z,90.80
2018-07-12T23:54:01.314Z,91.00
2018-07-12T23:56:36.931Z,91.20
2018-07-12T23:59:07.803Z,91.30
